createdAt,value
2023-02-09T00:01:26.172Z,3.02
2023-02-09T00:03:54.321Z,2.97
2023-02-09T00:06:26.256Z,2.85
2023-02-09T00:08:54.638Z,2.96
2023-02-09T00:11:44.283Z,3.05
2023-02-09T00:14:11.597Z,2.98
2023-02-09T00:16:39.266Z,2.99
2023-02-09T00:19:06.962Z,2.93
2023-02-09T00:21:37.366Z,2.93
2023-02-09T00:24:06.234Z,2.85
2023-02-09T00:26:34.274Z,2.92
2023-02-09T00:29:01.889Z,3.00
2023-02-09T00:31:29.993Z,3.05
2023-02-09T00:33:57.798Z,2.98
2023-02-09T00:36:25.424Z,3.03
2023-02-09T00:38:54.447Z,2.99
2023-02-09T00:41:42.795Z,2.94
2023-02-09T00:44:10.770Z,2.82
2023-02-09T00:46:39.932Z,2.85
2023-02-09T00:49:07.713Z,2.91
2023-02-09T00:51:35.394Z,2.84
2023-02-09T00:54:04.648Z,2.78
2023-02-09T00:56:32.285Z,2.61
2023-02-09T00:58:59.908Z,2.62
2023-02-09T01:01:27.641Z,2.52
2023-02-09T01:03:55.338Z,2.49
2023-02-09T01:06:23.112Z,2.44
2023-02-09T01:08:51.177Z,2.34
2023-02-09T01:11:20.232Z,2.37
2023-02-09T01:13:47.968Z,2.40
2023-02-09T01:16:18.590Z,2.45
2023-02-09T01:18:46.453Z,2.30
2023-02-09T01:21:15.852Z,2.18
2023-02-09T01:23:43.736Z,2.15
2023-02-09T01:26:12.855Z,2.06
2023-02-09T01:28:42.248Z,2.24
2023-02-09T01:31:21.212Z,2.06
2023-02-09T01:33:49.286Z,1.93
2023-02-09T01:36:17.096Z,1.91
2023-02-09T01:38:44.752Z,1.88
2023-02-09T01:41:12.917Z,1.93
2023-02-09T01:43:59.466Z,1.88
2023-02-09T01:46:29.236Z,1.88
2023-02-09T01:49:03.776Z,1.93
2023-02-09T01:51:34.162Z,2.04
2023-02-09T01:54:06.175Z,2.06
2023-02-09T01:56:34.239Z,1.93
2023-02-09T01:59:03.217Z,1.84
2023-02-09T02:01:31.267Z,1.70
2023-02-09T02:03:58.916Z,1.73
2023-02-09T02:06:27.059Z,1.84
2023-02-09T02:08:59.763Z,1.83
2023-02-09T02:11:29.782Z,1.91
2023-02-09T02:13:57.926Z,2.02
2023-02-09T02:16:54.774Z,1.96
2023-02-09T02:19:48.108Z,1.86
2023-02-09T02:22:48.055Z,1.97
2023-02-09T02:25:54.040Z,1.84
2023-02-09T02:28:41.566Z,1.80
2023-02-09T02:31:47.958Z,1.78
2023-02-09T02:34:21.081Z,1.67
2023-02-09T02:36:59.220Z,1.60
2023-02-09T02:39:32.517Z,1.54
2023-02-09T02:42:21.210Z,1.53
2023-02-09T02:45:02.851Z,1.44
2023-02-09T02:47:35.685Z,1.37
2023-02-09T02:50:09.318Z,1.46
2023-02-09T02:52:39.138Z,1.44
2023-02-09T02:55:10.807Z,1.45
2023-02-09T02:57:44.295Z,1.43
2023-02-09T03:00:15.465Z,1.43
2023-02-09T03:02:48.064Z,1.50
2023-02-09T03:05:17.529Z,1.50
2023-02-09T03:07:45.438Z,1.32
2023-02-09T03:10:28.470Z,1.19
2023-02-09T03:13:07.874Z,1.22
2023-02-09T03:15:49.563Z,1.24
2023-02-09T03:18:27.203Z,1.28
2023-02-09T03:21:00.072Z,1.28
2023-02-09T03:23:33.915Z,1.29
2023-02-09T03:26:08.761Z,1.12
2023-02-09T03:28:40.534Z,1.05
2023-02-09T03:31:10.163Z,1.07
2023-02-09T03:33:40.419Z,1.07
2023-02-09T03:36:13.653Z,1.03
2023-02-09T03:38:41.229Z,1.01
2023-02-09T03:41:08.883Z,1.04
2023-02-09T03:43:54.276Z,1.00
2023-02-09T03:46:22.125Z,0.88
2023-02-09T03:48:51.060Z,0.83
2023-02-09T03:51:18.943Z,0.83
2023-02-09T03:53:47.244Z,0.71
2023-02-09T03:56:14.901Z,0.75
2023-02-09T03:58:42.582Z,0.76
2023-02-09T04:01:12.063Z,0.70
2023-02-09T04:03:40.701Z,0.62
2023-02-09T04:06:10.981Z,0.65
2023-02-09T04:08:38.831Z,0.69
2023-02-09T04:11:06.553Z,0.73
2023-02-09T04:13:34.298Z,0.72
2023-02-09T04:16:01.956Z,0.77
2023-02-09T04:18:29.683Z,0.85
2023-02-09T04:20:57.353Z,0.80
2023-02-09T04:23:26.366Z,0.77
2023-02-09T04:25:54.010Z,0.80
2023-02-09T04:28:21.773Z,0.77
2023-02-09T04:30:52.987Z,0.78
2023-02-09T04:33:20.999Z,0.69
2023-02-09T04:35:48.966Z,0.77
2023-02-09T04:38:19.341Z,0.77
2023-02-09T04:40:48.556Z,0.72
2023-02-09T04:43:16.252Z,0.61
2023-02-09T04:45:44.423Z,0.57
2023-02-09T04:48:15.153Z,0.64
2023-02-09T04:50:43.637Z,0.64
2023-02-09T04:53:11.686Z,0.63
2023-02-09T04:55:39.609Z,0.52
2023-02-09T04:58:26.104Z,0.45
2023-02-09T05:00:55.900Z,0.44
2023-02-09T05:03:24.731Z,0.57
2023-02-09T05:05:55.720Z,0.59
2023-02-09T05:08:23.837Z,0.57
2023-02-09T05:10:52.101Z,0.53
2023-02-09T05:13:22.230Z,0.53
2023-02-09T05:15:49.919Z,0.50
2023-02-09T05:18:18.129Z,0.48
2023-02-09T05:20:46.998Z,0.60
2023-02-09T05:23:15.558Z,0.58
2023-02-09T05:25:43.240Z,0.62
2023-02-09T05:28:10.996Z,0.56
2023-02-09T05:30:40.279Z,0.59
2023-02-09T05:33:08.052Z,0.47
2023-02-09T05:35:35.800Z,0.44
2023-02-09T05:38:04.615Z,0.51
2023-02-09T05:40:32.376Z,0.37
2023-02-09T05:43:00.287Z,0.36
2023-02-09T05:45:28.056Z,0.46
2023-02-09T05:47:57.082Z,0.46
2023-02-09T05:50:24.823Z,0.33
2023-02-09T05:52:52.448Z,0.38
2023-02-09T05:55:20.286Z,0.38
2023-02-09T05:57:48.067Z,0.25
2023-02-09T06:00:16.742Z,0.19
2023-02-09T06:02:44.544Z,0.17
2023-02-09T06:05:13.564Z,0.18
2023-02-09T06:07:41.176Z,0.09
2023-02-09T06:10:09.342Z,0.12
2023-02-09T06:12:37.015Z,0.12
2023-02-09T06:15:05.433Z,0.19
2023-02-09T06:17:33.160Z,0.22
2023-02-09T06:20:00.909Z,0.24
2023-02-09T06:22:31.731Z,0.28
2023-02-09T06:24:59.530Z,0.17
2023-02-09T06:27:27.245Z,0.09
2023-02-09T06:29:54.935Z,0.05
2023-02-09T06:32:22.610Z,0.10
2023-02-09T06:34:50.411Z,0.27
2023-02-09T06:37:18.070Z,0.36
2023-02-09T06:39:47.122Z,0.32
2023-02-09T06:42:14.806Z,0.31
2023-02-09T06:44:42.458Z,0.19
2023-02-09T06:47:10.220Z,0.18
2023-02-09T06:49:37.983Z,0.09
2023-02-09T06:52:06.249Z,-0.05
2023-02-09T06:54:33.905Z,-0.08
2023-02-09T06:57:02.909Z,-0.08
2023-02-09T06:59:30.572Z,-0.16
2023-02-09T07:01:58.310Z,-0.12
2023-02-09T07:04:26.243Z,-0.14
2023-02-09T07:06:53.879Z,-0.10
2023-02-09T07:09:21.529Z,-0.10
2023-02-09T07:11:49.254Z,-0.04
2023-02-09T07:14:18.224Z,-0.05
2023-02-09T07:16:45.849Z,-0.22
2023-02-09T07:19:13.941Z,-0.18
2023-02-09T07:21:41.677Z,-0.12
2023-02-09T07:24:09.302Z,-0.10
2023-02-09T07:26:37.017Z,0.04
2023-02-09T07:29:04.678Z,0.29
2023-02-09T07:31:34.198Z,0.43
2023-02-09T07:34:02.781Z,0.36
2023-02-09T07:36:30.438Z,0.35
2023-02-09T07:38:59.480Z,0.44
2023-02-09T07:41:28.615Z,0.55
2023-02-09T07:43:57.356Z,0.50
2023-02-09T07:46:25.529Z,0.47
2023-02-09T07:48:54.694Z,0.45
2023-02-09T07:51:25.363Z,0.37
2023-02-09T07:53:53.827Z,0.42
2023-02-09T07:56:21.596Z,0.48
2023-02-09T07:58:49.558Z,0.43
2023-02-09T08:01:17.763Z,0.45
2023-02-09T08:03:47.079Z,0.58
2023-02-09T08:06:21.815Z,0.62
2023-02-09T08:08:52.281Z,0.59
2023-02-09T08:11:22.747Z,0.76
2023-02-09T08:13:51.974Z,0.82
2023-02-09T08:16:25.704Z,0.96
2023-02-09T08:18:56.704Z,0.98
2023-02-09T08:21:27.288Z,1.09
2023-02-09T08:23:58.771Z,1.20
2023-02-09T08:26:26.935Z,1.40
2023-02-09T08:28:55.203Z,1.46
2023-02-09T08:31:23.074Z,1.47
2023-02-09T08:33:52.605Z,1.43
2023-02-09T08:36:21.054Z,1.39
2023-02-09T08:38:50.265Z,1.47
2023-02-09T08:41:18.659Z,1.56
2023-02-09T08:43:48.942Z,1.63
2023-02-09T08:46:16.996Z,1.65
2023-02-09T08:48:47.094Z,1.76
2023-02-09T08:51:16.391Z,1.84
2023-02-09T08:53:46.113Z,1.86
2023-02-09T08:56:15.154Z,2.09
2023-02-09T08:58:42.832Z,2.34
2023-02-09T09:01:10.531Z,2.53
2023-02-09T09:03:38.315Z,2.53
2023-02-09T09:06:07.869Z,2.63
2023-02-09T09:08:37.683Z,2.75
2023-02-09T09:11:06.807Z,2.84
2023-02-09T09:13:35.909Z,2.96
2023-02-09T09:16:05.211Z,3.30
2023-02-09T09:18:33.046Z,4.07
2023-02-09T09:21:00.841Z,4.51
2023-02-09T09:23:28.537Z,5.95
2023-02-09T09:26:01.459Z,7.20
2023-02-09T09:28:29.238Z,8.73
2023-02-09T09:30:59.894Z,10.15
2023-02-09T09:33:27.760Z,11.21
2023-02-09T09:35:55.489Z,13.56
2023-02-09T09:38:23.149Z,14.27
2023-02-09T09:40:50.832Z,15.01
2023-02-09T09:43:24.925Z,15.68
2023-02-09T09:45:52.802Z,16.65
2023-02-09T09:48:25.332Z,17.23
2023-02-09T09:50:56.557Z,17.88
2023-02-09T09:53:33.333Z,17.94
2023-02-09T09:56:05.158Z,17.65
2023-02-09T09:58:34.256Z,16.89
2023-02-09T10:01:02.425Z,16.54
2023-02-09T10:03:31.525Z,16.93
2023-02-09T10:06:04.098Z,16.76
2023-02-09T10:08:35.925Z,16.22
2023-02-09T10:11:08.049Z,15.27
2023-02-09T10:13:39.607Z,13.73
2023-02-09T10:16:17.063Z,14.17
2023-02-09T10:18:46.801Z,14.52
2023-02-09T10:21:16.593Z,14.76
2023-02-09T10:23:46.526Z,13.39
2023-02-09T10:26:32.789Z,11.73
2023-02-09T10:29:08.112Z,11.29
2023-02-09T10:31:39.395Z,12.67
2023-02-09T10:34:14.832Z,14.51
2023-02-09T10:36:49.844Z,16.55
2023-02-09T10:39:20.513Z,17.20
2023-02-09T10:41:51.233Z,19.72
2023-02-09T10:44:23.481Z,22.03
2023-02-09T10:47:08.612Z,24.21
2023-02-09T10:49:39.905Z,26.05
2023-02-09T10:52:15.189Z,26.40
2023-02-09T10:54:44.558Z,24.21
2023-02-09T10:57:24.353Z,22.23
2023-02-09T10:59:53.290Z,18.48
2023-02-09T11:02:35.959Z,15.68
2023-02-09T11:05:25.425Z,14.82
2023-02-09T11:07:57.430Z,14.66
2023-02-09T11:10:27.009Z,14.87
2023-02-09T11:12:54.616Z,15.78
2023-02-09T11:15:27.123Z,14.89
2023-02-09T11:18:03.014Z,13.66
2023-02-09T11:20:36.577Z,13.50
2023-02-09T11:23:26.032Z,14.05
2023-02-09T11:26:01.112Z,13.58
2023-02-09T11:28:51.021Z,13.70
2023-02-09T11:31:32.399Z,14.61
2023-02-09T11:34:13.154Z,15.67
2023-02-09T11:36:49.728Z,15.66
2023-02-09T11:39:25.859Z,16.76
2023-02-09T11:42:18.172Z,17.78
2023-02-09T11:44:52.730Z,17.70
2023-02-09T11:47:27.105Z,17.59
2023-02-09T11:49:57.555Z,17.11
2023-02-09T11:52:32.693Z,16.90
2023-02-09T11:55:03.646Z,17.56
2023-02-09T11:57:37.083Z,18.72
2023-02-09T12:00:07.930Z,19.71
2023-02-09T12:02:47.652Z,20.56
2023-02-09T12:05:19.651Z,21.59
2023-02-09T12:08:13.689Z,21.66
2023-02-09T12:10:48.062Z,21.50
2023-02-09T12:13:31.344Z,20.92
2023-02-09T12:16:02.976Z,19.78
2023-02-09T12:18:33.176Z,18.17
2023-02-09T12:21:02.352Z,16.28
2023-02-09T12:23:34.036Z,15.38
2023-02-09T12:26:03.073Z,15.20
2023-02-09T12:28:42.284Z,15.66
2023-02-09T12:31:13.865Z,16.04
2023-02-09T12:34:10.608Z,16.07
2023-02-09T12:36:38.404Z,15.64
2023-02-09T12:39:25.284Z,14.97
2023-02-09T12:42:29.394Z,14.13
2023-02-09T12:44:59.197Z,15.03
2023-02-09T12:47:58.508Z,15.54
2023-02-09T12:50:47.154Z,14.37
2023-02-09T12:53:47.845Z,12.89
2023-02-09T12:56:34.067Z,12.68
2023-02-09T12:59:16.165Z,13.69
2023-02-09T13:02:24.034Z,14.43
2023-02-09T13:05:13.970Z,14.28
2023-02-09T13:07:49.501Z,14.11
2023-02-09T13:10:26.754Z,14.39
2023-02-09T13:13:04.126Z,14.34
2023-02-09T13:15:44.808Z,14.23
2023-02-09T13:18:21.077Z,14.28
2023-02-09T13:21:13.739Z,14.17
2023-02-09T13:23:56.436Z,13.94
2023-02-09T13:26:26.657Z,14.01
2023-02-09T13:29:19.940Z,13.84
2023-02-09T13:31:55.851Z,13.37
2023-02-09T13:34:33.053Z,12.85
2023-02-09T13:37:14.523Z,12.38
2023-02-09T13:39:44.174Z,11.89
2023-02-09T13:42:20.356Z,11.42
2023-02-09T13:44:52.635Z,10.83
2023-02-09T13:47:20.427Z,10.54
2023-02-09T13:49:59.715Z,10.25
2023-02-09T13:52:32.846Z,9.82
2023-02-09T13:55:12.620Z,9.56
2023-02-09T13:57:43.322Z,9.26
2023-02-09T14:00:23.448Z,8.83
2023-02-09T14:02:54.426Z,8.64
2023-02-09T14:05:31.500Z,8.55
2023-02-09T14:08:00.066Z,8.51
2023-02-09T14:10:30.079Z,8.55
2023-02-09T14:13:01.814Z,8.38
2023-02-09T14:15:54.228Z,8.09
2023-02-09T14:18:34.432Z,7.84
2023-02-09T14:21:04.741Z,7.70
2023-02-09T14:23:35.217Z,7.53
2023-02-09T14:26:05.872Z,7.47
2023-02-09T14:28:35.118Z,7.52
2023-02-09T14:31:04.782Z,7.31
2023-02-09T14:33:35.796Z,7.15
2023-02-09T14:36:04.681Z,7.17
2023-02-09T14:38:37.744Z,7.02
2023-02-09T14:41:31.171Z,6.86
2023-02-09T14:44:04.545Z,6.70
2023-02-09T14:49:26.582Z,6.62
2023-02-09T14:52:03.024Z,6.68
2023-02-09T14:54:33.901Z,6.60
2023-02-09T14:57:03.751Z,6.51
2023-02-09T14:59:31.816Z,6.42
2023-02-09T15:01:59.613Z,6.47
2023-02-09T15:04:28.618Z,6.46
2023-02-09T15:07:04.484Z,6.50
2023-02-09T15:09:36.820Z,6.55
2023-02-09T15:12:07.636Z,6.62
2023-02-09T15:14:45.000Z,6.60
2023-02-09T15:17:16.129Z,6.58
2023-02-09T15:19:46.056Z,6.64
2023-02-09T15:22:16.142Z,6.70
2023-02-09T15:24:44.519Z,6.74
2023-02-09T15:27:19.749Z,6.81
2023-02-09T15:29:47.993Z,6.80
2023-02-09T15:32:17.322Z,6.62
2023-02-09T15:34:47.261Z,6.57
2023-02-09T15:37:21.421Z,6.48
2023-02-09T15:39:50.169Z,6.43
2023-02-09T15:42:51.498Z,6.31
2023-02-09T15:45:34.952Z,6.23
2023-02-09T15:48:02.737Z,6.13
2023-02-09T15:50:34.307Z,5.99
2023-02-09T15:53:04.155Z,5.94
2023-02-09T15:55:32.674Z,5.90
2023-02-09T15:58:00.629Z,5.87
2023-02-09T16:00:30.079Z,5.84
2023-02-09T16:03:00.079Z,5.90
2023-02-09T16:05:30.017Z,5.85
2023-02-09T16:08:00.550Z,5.88
2023-02-09T16:10:30.893Z,5.88
2023-02-09T16:12:58.695Z,5.85
2023-02-09T16:15:27.713Z,5.82
2023-02-09T16:17:55.364Z,5.85
2023-02-09T16:20:25.804Z,5.86
2023-02-09T16:22:55.662Z,5.89
2023-02-09T16:25:26.852Z,5.97
2023-02-09T16:27:56.044Z,6.02
2023-02-09T16:30:26.177Z,6.03
2023-02-09T16:32:54.574Z,5.94
2023-02-09T16:35:24.133Z,5.93
2023-02-09T16:37:56.104Z,5.90
2023-02-09T16:40:27.952Z,5.79
2023-02-09T16:42:57.747Z,5.74
2023-02-09T16:45:26.974Z,5.78
2023-02-09T16:47:59.172Z,5.73
2023-02-09T16:50:33.072Z,5.55
2023-02-09T16:53:03.912Z,5.40
2023-02-09T16:55:35.475Z,5.48
2023-02-09T16:58:05.281Z,5.54
2023-02-09T17:00:34.763Z,5.35
2023-02-09T17:03:09.516Z,5.15
2023-02-09T17:05:38.049Z,4.98
2023-02-09T17:08:08.794Z,4.93
2023-02-09T17:10:37.813Z,4.93
2023-02-09T17:13:05.597Z,4.84
2023-02-09T17:15:39.351Z,4.75
2023-02-09T17:18:10.080Z,4.81
2023-02-09T17:20:41.830Z,4.91
2023-02-09T17:23:14.265Z,4.99
2023-02-09T17:25:44.244Z,4.89
2023-02-09T17:28:12.445Z,4.88
2023-02-09T17:30:41.023Z,4.88
2023-02-09T17:33:18.301Z,4.93
2023-02-09T17:36:13.968Z,4.82
2023-02-09T17:38:35.950Z,4.69
2023-02-09T17:41:07.674Z,4.71
2023-02-09T17:43:35.427Z,4.71
2023-02-09T17:46:05.183Z,4.64
2023-02-09T17:48:32.983Z,4.63
2023-02-09T17:51:02.670Z,4.66
2023-02-09T17:53:35.300Z,4.60
2023-02-09T17:56:03.311Z,4.62
2023-02-09T17:58:32.405Z,4.56
2023-02-09T18:01:00.145Z,4.57
2023-02-09T18:03:28.005Z,4.53
2023-02-09T18:05:58.411Z,4.55
2023-02-09T18:08:27.231Z,4.49
2023-02-09T18:10:56.922Z,4.38
2023-02-09T18:13:26.958Z,4.31
2023-02-09T18:15:56.239Z,4.28
2023-02-09T18:18:24.472Z,4.31
2023-02-09T18:20:52.447Z,4.28
2023-02-09T18:23:20.175Z,4.24
2023-02-09T18:25:49.639Z,4.29
2023-02-09T18:28:17.653Z,4.27
2023-02-09T18:30:46.262Z,4.29
2023-02-09T18:33:16.430Z,4.17
2023-02-09T18:35:45.725Z,4.02
2023-02-09T18:38:15.778Z,3.95
2023-02-09T18:40:43.500Z,3.91
2023-02-09T18:43:14.532Z,3.85
2023-02-09T18:45:42.198Z,3.85
2023-02-09T18:48:11.685Z,3.79
2023-02-09T18:50:40.804Z,3.84
2023-02-09T18:53:08.762Z,3.96
2023-02-09T18:55:36.537Z,3.91
2023-02-09T18:58:06.175Z,3.85
2023-02-09T19:00:34.184Z,3.81
2023-02-09T19:03:02.209Z,3.77
2023-02-09T19:05:32.069Z,3.85
2023-02-09T19:08:01.757Z,3.87
2023-02-09T19:10:32.949Z,3.78
2023-02-09T19:13:01.887Z,3.72
2023-02-09T19:15:30.253Z,3.73
2023-02-09T19:17:57.974Z,3.81
2023-02-09T19:20:27.568Z,3.84
2023-02-09T19:22:56.114Z,3.90
2023-02-09T19:25:26.792Z,3.96
2023-02-09T19:27:55.160Z,3.82
2023-02-09T19:30:26.382Z,3.71
2023-02-09T19:32:55.259Z,3.63
2023-02-09T19:35:23.331Z,3.62
2023-02-09T19:37:52.493Z,3.61
2023-02-09T19:40:28.104Z,3.79
2023-02-09T19:42:57.533Z,3.82
2023-02-09T19:45:25.251Z,3.88
2023-02-09T19:47:52.910Z,3.94
2023-02-09T19:50:20.783Z,3.92
2023-02-09T19:52:50.228Z,3.86
2023-02-09T19:55:18.022Z,3.87
2023-02-09T19:57:45.740Z,3.83
2023-02-09T20:00:18.067Z,3.90
2023-02-09T20:02:46.038Z,3.81
2023-02-09T20:05:14.058Z,3.70
2023-02-09T20:07:41.726Z,3.64
2023-02-09T20:10:10.491Z,3.73
2023-02-09T20:12:38.208Z,3.79
2023-02-09T20:15:06.282Z,3.87
2023-02-09T20:17:35.389Z,3.83
2023-02-09T20:20:03.017Z,3.83
2023-02-09T20:22:30.767Z,3.81
2023-02-09T20:24:58.403Z,3.76
2023-02-09T20:27:26.091Z,3.73
2023-02-09T20:29:57.194Z,3.80
2023-02-09T20:32:24.852Z,3.80
2023-02-09T20:34:53.798Z,3.82
2023-02-09T20:37:21.479Z,3.81
2023-02-09T20:39:49.131Z,3.70
2023-02-09T20:42:34.902Z,3.62
2023-02-09T20:45:20.304Z,3.51
2023-02-09T20:47:48.085Z,3.37
2023-02-09T20:50:17.850Z,3.23
2023-02-09T20:52:46.035Z,3.14
2023-02-09T20:55:14.222Z,3.19
2023-02-09T20:57:42.466Z,3.21
2023-02-09T21:00:11.248Z,3.21
2023-02-09T21:02:39.173Z,3.21
2023-02-09T21:05:07.278Z,3.13
2023-02-09T21:07:36.624Z,3.19
2023-02-09T21:10:04.688Z,3.20
2023-02-09T21:12:32.372Z,3.14
2023-02-09T21:15:00.097Z,3.20
2023-02-09T21:17:27.813Z,3.17
2023-02-09T21:19:55.541Z,3.08
2023-02-09T21:22:23.288Z,3.09
2023-02-09T21:24:52.371Z,3.13
2023-02-09T21:27:20.488Z,3.10
2023-02-09T21:29:48.460Z,3.00
2023-02-09T21:32:16.348Z,3.04
2023-02-09T21:34:44.199Z,2.96
2023-02-09T21:37:14.128Z,2.72
2023-02-09T21:39:42.383Z,2.69
2023-02-09T21:42:30.286Z,2.71
2023-02-09T21:44:59.811Z,2.75
2023-02-09T21:47:28.589Z,2.87
2023-02-09T21:49:57.271Z,2.83
2023-02-09T21:52:25.770Z,2.76
2023-02-09T21:54:54.725Z,2.78
2023-02-09T21:57:24.149Z,2.80
2023-02-09T21:59:52.096Z,2.80
2023-02-09T22:02:21.274Z,2.73
2023-02-09T22:04:49.712Z,2.68
2023-02-09T22:07:17.806Z,2.78
2023-02-09T22:09:45.516Z,2.80
2023-02-09T22:12:13.301Z,2.78
2023-02-09T22:14:42.526Z,2.81
2023-02-09T22:17:10.550Z,2.85
2023-02-09T22:19:38.976Z,2.87
2023-02-09T22:22:06.944Z,2.88
2023-02-09T22:24:34.889Z,2.85
2023-02-09T22:27:03.485Z,2.88
2023-02-09T22:29:33.323Z,2.82
2023-02-09T22:32:02.566Z,2.69
2023-02-09T22:34:30.315Z,2.69
2023-02-09T22:36:58.132Z,2.62
2023-02-09T22:39:25.977Z,2.51
2023-02-09T22:41:58.058Z,2.53
2023-02-09T22:44:28.005Z,2.64
2023-02-09T22:46:55.894Z,2.60
2023-02-09T22:49:25.102Z,2.58
2023-02-09T22:51:53.195Z,2.48
2023-02-09T22:54:21.316Z,2.38
2023-02-09T22:56:49.124Z,2.36
2023-02-09T22:59:17.122Z,2.29
2023-02-09T23:01:45.416Z,2.24
2023-02-09T23:04:13.300Z,2.18
2023-02-09T23:06:42.548Z,2.17
2023-02-09T23:09:10.303Z,2.21
2023-02-09T23:11:38.144Z,2.33
2023-02-09T23:14:10.224Z,2.28
2023-02-09T23:16:39.974Z,2.34
2023-02-09T23:19:11.029Z,2.27
2023-02-09T23:21:42.082Z,2.25
2023-02-09T23:24:12.716Z,2.23
2023-02-09T23:26:40.879Z,2.19
2023-02-09T23:29:10.891Z,2.16
2023-02-09T23:31:39.052Z,2.19
2023-02-09T23:34:06.750Z,2.16
2023-02-09T23:36:35.984Z,2.19
2023-02-09T23:39:07.436Z,2.21
2023-02-09T23:41:36.756Z,2.21
2023-02-09T23:44:04.844Z,2.24
2023-02-09T23:46:32.947Z,2.33
2023-02-09T23:49:01.599Z,2.37
2023-02-09T23:51:31.422Z,2.28
2023-02-09T23:54:01.952Z,2.19
2023-02-09T23:56:31.821Z,2.08
2023-02-09T23:59:00.971Z,2.03
